Terminal Aerodrome Forecast
Issued by NWS Melbourne, FL

Home | Current Version | Previous Version | Text Only | Print | Product List | Glossary On
Versions: 1 2 3 4 5 6 7 8 9 10 11 12 13 14 15 16 17 18 19 20 21 22 23
966
FTUS42 KMLB 100822 AAA
TAFMCO
TAF AMD
KMCO 100822Z 1008/1106 31008KT P6SM SCT050 SCT250
      TEMPO 1009/1011 OVC050
     FM101400 29016G24KT P6SM SKC
     FM110100 31006KT P6SM SKC=

USA.gov is the U.S. government's official web portal to all federal, state and local government web resources and services.